createdAt,value
2023-07-08T00:00:59.928Z,44.15
2023-07-08T00:01:59.766Z,43.99
2023-07-08T00:02:59.774Z,46.57
2023-07-08T00:03:59.746Z,43.99
2023-07-08T00:04:59.698Z,43.99
2023-07-08T00:05:59.698Z,43.18
2023-07-08T00:06:59.694Z,43.67
2023-07-08T00:07:59.672Z,43.83
2023-07-08T00:08:59.695Z,46.08
2023-07-08T00:09:59.669Z,43.67
2023-07-08T00:10:59.871Z,45.60
2023-07-08T00:11:59.626Z,44.79
2023-07-08T00:12:59.642Z,42.86
2023-07-08T00:13:59.608Z,41.73
2023-07-08T00:14:59.604Z,42.70
2023-07-08T00:15:59.567Z,42.70
2023-07-08T00:16:59.683Z,43.34
2023-07-08T00:17:59.624Z,43.99
2023-07-08T00:18:59.562Z,42.54
2023-07-08T00:19:59.522Z,44.31
2023-07-08T00:20:59.721Z,47.70
2023-07-08T00:21:59.534Z,43.83
2023-07-08T00:22:59.486Z,43.83
2023-07-08T00:23:59.524Z,43.51
2023-07-08T00:24:59.473Z,42.54
2023-07-08T00:25:59.477Z,43.51
2023-07-08T00:26:59.471Z,46.57
2023-07-08T00:27:59.456Z,43.02
2023-07-08T00:28:59.420Z,43.02
2023-07-08T00:29:59.437Z,46.89
2023-07-08T00:30:59.636Z,47.05
2023-07-08T00:31:59.394Z,43.51
2023-07-08T00:32:59.471Z,45.28
2023-07-08T00:33:59.412Z,42.38
2023-07-08T00:34:59.354Z,45.44
2023-07-08T00:35:59.373Z,46.08
2023-07-08T00:36:59.377Z,44.15
2023-07-08T00:37:59.358Z,45.76
2023-07-08T00:38:59.318Z,43.99
2023-07-08T00:39:59.354Z,43.99
2023-07-08T00:40:59.662Z,43.02
2023-07-08T00:41:59.290Z,45.44
2023-07-08T00:42:59.298Z,45.12
2023-07-08T00:43:59.292Z,42.86
2023-07-08T00:44:59.252Z,44.15
2023-07-08T00:46:03.032Z,43.51
2023-07-08T00:47:00.309Z,43.18
2023-07-08T00:47:59.238Z,44.31
2023-07-08T00:48:59.226Z,42.06
2023-07-08T00:49:59.204Z,42.22
2023-07-08T00:50:59.607Z,47.05
2023-07-08T00:51:59.188Z,47.86
2023-07-08T00:52:59.184Z,48.98
2023-07-08T00:53:59.168Z,44.47
2023-07-08T00:54:59.158Z,44.47
2023-07-08T00:55:59.174Z,45.44
2023-07-08T00:56:59.125Z,46.08
2023-07-08T00:57:59.108Z,47.86
2023-07-08T00:58:59.134Z,44.15
2023-07-08T00:59:59.090Z,43.67
2023-07-08T01:00:59.300Z,44.31
2023-07-08T01:01:59.150Z,43.67
2023-07-08T01:02:59.195Z,42.70
2023-07-08T01:03:59.093Z,44.96
2023-07-08T01:04:59.058Z,47.37
2023-07-08T01:05:59.055Z,44.47
2023-07-08T01:06:59.022Z,44.63
2023-07-08T01:07:59.029Z,51.40
2023-07-08T01:08:59.009Z,44.15
2023-07-08T01:09:59.001Z,44.15
2023-07-08T01:11:00.856Z,43.67
2023-07-08T01:11:59.979Z,45.76
2023-07-08T01:12:58.970Z,44.79
2023-07-08T01:13:58.960Z,47.37
2023-07-08T01:14:58.917Z,45.12
2023-07-08T01:15:58.920Z,45.60
2023-07-08T01:16:58.931Z,48.02
2023-07-08T01:17:58.975Z,44.63
2023-07-08T01:18:58.867Z,43.83
2023-07-08T01:19:58.902Z,46.73
2023-07-08T01:20:59.175Z,43.83
2023-07-08T01:21:58.855Z,44.79
2023-07-08T01:22:58.860Z,43.02
2023-07-08T01:23:58.832Z,43.18
2023-07-08T01:24:58.801Z,46.08
2023-07-08T01:25:58.812Z,47.05
2023-07-08T01:26:58.807Z,53.50
2023-07-08T01:27:58.777Z,49.79
2023-07-08T01:28:58.785Z,46.41
2023-07-08T01:29:58.766Z,43.67
2023-07-08T01:30:59.182Z,43.18
2023-07-08T01:31:58.778Z,47.37
2023-07-08T01:32:58.849Z,44.47
2023-07-08T01:33:58.732Z,48.50
2023-07-08T01:34:58.696Z,46.89
2023-07-08T01:35:58.717Z,45.28
2023-07-08T01:36:58.684Z,43.34
2023-07-08T01:37:58.666Z,44.31
2023-07-08T01:38:58.672Z,47.53
2023-07-08T01:39:58.653Z,45.76
2023-07-08T01:40:59.070Z,45.76
2023-07-08T01:41:58.658Z,43.67
2023-07-08T01:42:58.637Z,44.31
2023-07-08T01:43:58.612Z,46.41
2023-07-08T01:44:58.578Z,46.08
2023-07-08T01:45:58.602Z,44.79
2023-07-08T01:46:58.629Z,44.31
2023-07-08T01:47:58.641Z,44.79
2023-07-08T01:48:58.525Z,45.92
2023-07-08T01:49:58.529Z,44.47
2023-07-08T01:50:59.171Z,45.28
2023-07-08T01:51:58.525Z,44.96
2023-07-08T01:52:58.524Z,47.86
2023-07-08T01:53:58.497Z,48.82
2023-07-08T01:54:58.457Z,44.31
2023-07-08T01:55:58.457Z,44.96
2023-07-08T01:56:58.484Z,46.89
2023-07-08T01:57:58.463Z,46.57
2023-07-08T01:58:58.414Z,45.44
2023-07-08T01:59:58.440Z,45.12
2023-07-08T02:00:58.632Z,47.37
2023-07-08T02:01:58.438Z,45.12
2023-07-08T02:02:58.495Z,46.73
2023-07-08T02:03:58.370Z,46.41
2023-07-08T02:04:58.384Z,44.79
2023-07-08T02:05:58.435Z,46.08
2023-07-08T02:06:58.356Z,45.76
2023-07-08T02:07:58.321Z,44.63
2023-07-08T02:08:58.328Z,44.79
2023-07-08T02:09:58.300Z,49.15
2023-07-08T02:10:58.559Z,45.28
2023-07-08T02:11:58.282Z,45.60
2023-07-08T02:12:58.318Z,44.96
2023-07-08T02:13:58.315Z,45.12
2023-07-08T02:14:58.255Z,44.63
2023-07-08T02:15:58.253Z,46.73
2023-07-08T02:16:58.239Z,49.79
2023-07-08T02:17:58.228Z,46.08
2023-07-08T02:18:58.185Z,46.08
2023-07-08T02:19:58.184Z,45.60
2023-07-08T02:20:58.369Z,45.60
2023-07-08T02:21:58.164Z,44.96
2023-07-08T02:22:58.161Z,44.79
2023-07-08T02:23:58.158Z,45.76
2023-07-08T02:24:58.118Z,45.44
2023-07-08T02:25:58.130Z,48.02
2023-07-08T02:26:58.121Z,50.27
2023-07-08T02:27:58.112Z,47.86
2023-07-08T02:28:58.090Z,46.57
2023-07-08T02:29:58.065Z,45.28
2023-07-08T02:30:58.343Z,45.60
2023-07-08T02:31:58.064Z,46.08
2023-07-08T02:32:58.416Z,47.70
2023-07-08T02:33:59.036Z,47.37
2023-07-08T02:34:58.001Z,47.70
2023-07-08T02:35:57.997Z,50.11
2023-07-08T02:36:58.015Z,49.63
2023-07-08T02:37:57.996Z,49.15
2023-07-08T02:38:57.961Z,44.96
2023-07-08T02:39:57.977Z,45.28
2023-07-08T02:40:58.047Z,45.76
2023-07-08T02:41:57.955Z,47.21
2023-07-08T02:42:57.961Z,51.40
2023-07-08T02:43:57.911Z,50.92
2023-07-08T02:44:57.895Z,45.44
2023-07-08T02:45:57.916Z,46.08
2023-07-08T02:46:57.903Z,46.08
2023-07-08T02:47:57.888Z,46.89
2023-07-08T02:48:57.884Z,46.89
2023-07-08T02:49:57.847Z,47.21
2023-07-08T02:50:57.973Z,46.73
2023-07-08T02:51:57.816Z,47.86
2023-07-08T02:52:57.858Z,48.02
2023-07-08T02:53:57.831Z,48.18
2023-07-08T02:54:57.775Z,49.47
2023-07-08T02:55:57.812Z,45.76
2023-07-08T02:56:57.775Z,45.12
2023-07-08T02:57:57.756Z,45.44
2023-07-08T02:58:57.763Z,45.92
2023-07-08T02:59:57.753Z,47.05
2023-07-08T03:00:57.741Z,46.25
2023-07-08T03:01:57.754Z,48.50
2023-07-08T03:02:57.819Z,49.15
2023-07-08T03:03:57.701Z,49.47
2023-07-08T03:04:57.704Z,49.15
2023-07-08T03:05:57.694Z,47.05
2023-07-08T03:06:57.650Z,47.53
2023-07-08T03:07:57.643Z,49.15
2023-07-08T03:08:57.665Z,47.70
2023-07-08T03:09:57.630Z,44.63
2023-07-08T03:10:58.012Z,46.57
2023-07-08T03:11:57.621Z,46.57
2023-07-08T03:12:57.590Z,44.63
2023-07-08T03:13:57.618Z,45.60
2023-07-08T03:14:57.605Z,46.25
2023-07-08T03:15:57.569Z,45.76
2023-07-08T03:16:57.589Z,48.18
2023-07-08T03:17:57.576Z,48.50
2023-07-08T03:18:57.534Z,46.73
2023-07-08T03:19:57.520Z,47.21
2023-07-08T03:20:57.741Z,50.43
2023-07-08T03:21:57.496Z,45.60
2023-07-08T03:22:57.488Z,45.12
2023-07-08T03:23:57.471Z,48.82
2023-07-08T03:24:57.447Z,46.41
2023-07-08T03:25:57.442Z,47.53
2023-07-08T03:26:57.457Z,49.31
2023-07-08T03:27:57.395Z,49.79
2023-07-08T03:28:57.420Z,47.70
2023-07-08T03:29:57.400Z,50.60
2023-07-08T03:30:57.416Z,48.02
2023-07-08T03:31:57.382Z,48.18
2023-07-08T03:32:57.449Z,50.92
2023-07-08T03:33:57.360Z,47.21
2023-07-08T03:34:57.320Z,50.43
2023-07-08T03:35:57.358Z,52.21
2023-07-08T03:36:57.288Z,51.56
2023-07-08T03:37:57.298Z,46.25
2023-07-08T03:38:57.318Z,47.53
2023-07-08T03:39:57.278Z,46.89
2023-07-08T03:40:57.346Z,48.50
2023-07-08T03:41:57.261Z,49.79
2023-07-08T03:42:57.264Z,49.47
2023-07-08T03:43:57.235Z,51.40
2023-07-08T03:44:57.246Z,49.15
2023-07-08T03:45:57.210Z,50.60
2023-07-08T03:46:57.195Z,48.18
2023-07-08T03:47:57.247Z,49.47
2023-07-08T03:48:57.197Z,46.41
2023-07-08T03:49:57.163Z,50.76
2023-07-08T03:50:57.264Z,47.86
2023-07-08T03:51:57.153Z,46.25
2023-07-08T03:52:57.153Z,47.86
2023-07-08T03:53:57.193Z,46.89
2023-07-08T03:54:57.097Z,48.50
2023-07-08T03:55:57.100Z,49.47
2023-07-08T03:56:57.125Z,50.27
2023-07-08T03:57:57.081Z,48.18
2023-07-08T03:58:57.045Z,48.18
2023-07-08T03:59:57.090Z,49.47
2023-07-08T04:00:57.037Z,49.31
2023-07-08T04:01:57.237Z,48.18
2023-07-08T04:02:57.089Z,48.82
2023-07-08T04:03:57.145Z,49.79
2023-07-08T04:04:57.020Z,45.44
2023-07-08T04:05:57.147Z,48.02
2023-07-08T04:06:57.043Z,50.43
2023-07-08T04:07:56.951Z,47.05
2023-07-08T04:08:57.000Z,48.34
2023-07-08T04:09:56.951Z,48.50
2023-07-08T04:10:56.916Z,48.02
2023-07-08T04:11:56.907Z,47.86
2023-07-08T04:12:56.918Z,48.82
2023-07-08T04:13:56.914Z,48.34
2023-07-08T04:14:56.877Z,49.95
2023-07-08T04:15:56.892Z,49.47
2023-07-08T04:16:56.952Z,49.95
2023-07-08T04:17:56.902Z,50.92
2023-07-08T04:18:56.854Z,50.76
2023-07-08T04:19:56.833Z,48.50
2023-07-08T04:21:57.807Z,48.66
2023-07-08T04:22:56.798Z,48.50
2023-07-08T04:23:56.778Z,47.05
2023-07-08T04:24:56.754Z,47.53
2023-07-08T04:25:56.769Z,49.47
2023-07-08T04:26:56.771Z,51.40
2023-07-08T04:27:56.737Z,49.47
2023-07-08T04:28:56.730Z,49.47
2023-07-08T04:29:57.711Z,50.60
2023-07-08T04:30:56.744Z,49.79
2023-07-08T04:31:56.669Z,52.21
2023-07-08T04:32:56.717Z,50.60
2023-07-08T04:33:56.678Z,51.24
2023-07-08T04:34:56.663Z,51.88
2023-07-08T04:35:56.649Z,48.82
2023-07-08T04:36:56.666Z,47.21
2023-07-08T04:37:56.631Z,49.31
2023-07-08T04:38:56.588Z,49.31
2023-07-08T04:39:56.620Z,49.47
2023-07-08T04:40:56.652Z,49.47
2023-07-08T04:41:56.586Z,47.86
2023-07-08T04:42:56.593Z,45.76
2023-07-08T04:43:56.557Z,47.86
2023-07-08T04:44:56.528Z,50.43
2023-07-08T04:45:56.614Z,49.47
2023-07-08T04:46:56.564Z,47.53
2023-07-08T04:47:56.576Z,49.95
2023-07-08T04:48:56.519Z,50.27
2023-07-08T04:49:56.516Z,47.05
2023-07-08T04:50:56.461Z,48.34
2023-07-08T04:51:57.471Z,49.47
2023-07-08T04:52:56.508Z,50.60
2023-07-08T04:53:56.463Z,49.15
2023-07-08T04:54:56.427Z,47.53
2023-07-08T04:55:56.476Z,48.02
2023-07-08T04:56:56.437Z,45.76
2023-07-08T04:57:56.418Z,47.05
2023-07-08T04:58:56.395Z,47.70
2023-07-08T04:59:56.396Z,46.08
2023-07-08T05:00:56.410Z,49.47
2023-07-08T05:01:56.412Z,47.53
2023-07-08T05:02:56.399Z,48.02
2023-07-08T05:03:56.406Z,48.02
2023-07-08T05:04:56.328Z,47.86
2023-07-08T05:05:56.331Z,49.15
2023-07-08T05:06:56.351Z,48.82
2023-07-08T05:07:56.309Z,47.37
2023-07-08T05:08:56.295Z,46.73
2023-07-08T05:09:56.294Z,48.98
2023-07-08T05:10:56.287Z,49.47
2023-07-08T05:11:56.241Z,47.70
2023-07-08T05:12:56.266Z,47.37
2023-07-08T05:13:56.267Z,47.21
2023-07-08T05:14:56.213Z,46.57
2023-07-08T05:15:56.278Z,44.63
2023-07-08T05:16:56.237Z,45.76
2023-07-08T05:17:56.257Z,45.28
2023-07-08T05:18:56.165Z,47.86
2023-07-08T05:19:56.204Z,45.92
2023-07-08T05:20:56.139Z,45.92
2023-07-08T05:21:56.147Z,44.96
2023-07-08T05:22:56.158Z,46.41
2023-07-08T05:23:56.136Z,50.43
2023-07-08T05:24:56.112Z,47.70
2023-07-08T05:25:56.113Z,48.66
2023-07-08T05:26:56.119Z,49.15
2023-07-08T05:27:56.096Z,50.76
2023-07-08T05:28:56.084Z,48.18
2023-07-08T05:29:56.071Z,48.98
2023-07-08T05:30:56.072Z,49.15
2023-07-08T05:31:56.082Z,47.53
2023-07-08T05:32:56.075Z,50.11
2023-07-08T05:33:56.029Z,50.43
2023-07-08T05:34:56.022Z,48.02
2023-07-08T05:35:55.988Z,47.37
2023-07-08T05:36:56.016Z,49.15
2023-07-08T05:37:55.977Z,49.47
2023-07-08T05:38:55.967Z,46.57
2023-07-08T05:39:55.948Z,47.21
2023-07-08T05:40:55.960Z,46.57
2023-07-08T05:41:55.935Z,48.34
2023-07-08T05:42:55.908Z,46.89
2023-07-08T05:43:55.938Z,45.44
2023-07-08T05:44:55.884Z,45.28
2023-07-08T05:46:10.425Z,46.73
2023-07-08T05:46:57.962Z,47.70
2023-07-08T05:47:55.872Z,45.12
2023-07-08T05:48:56.333Z,45.28
2023-07-08T05:49:55.864Z,45.28
2023-07-08T05:50:55.868Z,44.15
2023-07-08T05:51:55.811Z,45.76
2023-07-08T05:52:55.831Z,44.79
2023-07-08T05:53:55.808Z,44.31
2023-07-08T05:54:55.789Z,46.41
2023-07-08T05:55:55.785Z,46.41
2023-07-08T05:56:55.784Z,46.25
2023-07-08T05:57:55.760Z,46.08
2023-07-08T05:58:55.743Z,47.21
2023-07-08T05:59:55.740Z,46.25
2023-07-08T06:00:55.841Z,47.53
2023-07-08T06:01:56.026Z,50.76
2023-07-08T06:02:55.728Z,43.34
2023-07-08T06:03:55.788Z,43.51
2023-07-08T06:04:55.705Z,45.60
2023-07-08T06:05:55.678Z,45.28
2023-07-08T06:06:55.658Z,48.82
2023-07-08T06:07:55.682Z,47.86
2023-07-08T06:08:55.606Z,44.15
2023-07-08T06:09:55.631Z,43.67
2023-07-08T06:10:55.651Z,44.47
2023-07-08T06:11:55.615Z,46.25
2023-07-08T06:12:55.561Z,48.66
2023-07-08T06:13:55.609Z,48.18
2023-07-08T06:14:55.592Z,44.79
2023-07-08T06:15:55.584Z,46.73
2023-07-08T06:16:55.650Z,47.21
2023-07-08T06:17:55.580Z,45.28
2023-07-08T06:18:55.522Z,44.31
2023-07-08T06:19:55.522Z,41.57
2023-07-08T06:20:55.509Z,46.41
2023-07-08T06:21:59.346Z,45.44
2023-07-08T06:22:56.463Z,43.34
2023-07-08T06:23:55.481Z,45.44
2023-07-08T06:24:55.482Z,46.08
2023-07-08T06:25:55.464Z,47.05
2023-07-08T06:27:56.431Z,45.12
2023-07-08T06:28:55.423Z,42.22
2023-07-08T06:29:55.402Z,41.89
2023-07-08T06:30:55.420Z,48.50
2023-07-08T06:31:55.528Z,49.15
2023-07-08T06:32:55.454Z,47.37
2023-07-08T06:33:55.366Z,43.83
2023-07-08T06:34:55.385Z,44.79
2023-07-08T06:35:55.345Z,48.18
2023-07-08T06:36:55.333Z,45.76
2023-07-08T06:37:55.317Z,44.15
2023-07-08T06:38:55.328Z,47.05
2023-07-08T06:39:55.290Z,45.60
2023-07-08T06:40:55.303Z,44.96
2023-07-08T06:41:55.285Z,50.43
2023-07-08T06:42:55.256Z,45.28
2023-07-08T06:43:55.254Z,48.50
2023-07-08T06:44:55.276Z,45.44
2023-07-08T06:45:55.263Z,48.98
2023-07-08T06:46:55.207Z,43.02
2023-07-08T06:47:55.279Z,46.57
2023-07-08T06:48:55.186Z,46.57
2023-07-08T06:49:57.442Z,49.31
2023-07-08T06:50:55.199Z,46.08
2023-07-08T06:51:55.177Z,45.12
2023-07-08T06:52:55.140Z,46.25
2023-07-08T06:53:55.144Z,49.31
2023-07-08T06:54:55.171Z,46.73
2023-07-08T06:55:55.114Z,46.25
2023-07-08T06:56:55.141Z,46.89
2023-07-08T06:57:55.108Z,46.57
2023-07-08T06:58:55.089Z,47.05
2023-07-08T06:59:55.092Z,46.57
2023-07-08T07:00:55.144Z,49.47
2023-07-08T07:01:55.124Z,47.37
2023-07-08T07:02:55.080Z,46.25
2023-07-08T07:03:55.091Z,45.44
2023-07-08T07:04:55.039Z,47.86
2023-07-08T07:05:55.018Z,49.47
2023-07-08T07:06:55.021Z,44.31
2023-07-08T07:07:55.012Z,48.34
2023-07-08T07:08:54.988Z,49.63
2023-07-08T07:09:54.982Z,46.89
2023-07-08T07:10:54.996Z,48.34
2023-07-08T07:11:54.940Z,49.95
2023-07-08T07:12:54.972Z,47.37
2023-07-08T07:13:54.962Z,47.86
2023-07-08T07:14:54.946Z,48.82
2023-07-08T07:15:54.944Z,45.12
2023-07-08T07:17:07.235Z,46.73
2023-07-08T07:17:57.004Z,48.02
2023-07-08T07:18:54.864Z,48.82
2023-07-08T07:19:54.917Z,47.21
2023-07-08T07:20:54.854Z,47.70
2023-07-08T07:21:54.848Z,49.15
2023-07-08T07:22:54.899Z,47.86
2023-07-08T07:23:54.836Z,48.98
2023-07-08T07:24:54.803Z,47.86
2023-07-08T07:25:54.860Z,48.82
2023-07-08T07:26:54.814Z,48.34
2023-07-08T07:27:54.774Z,47.86
2023-07-08T07:28:54.797Z,49.63
2023-07-08T07:29:54.770Z,49.95
2023-07-08T07:30:54.782Z,48.66
2023-07-08T07:31:54.747Z,51.56
2023-07-08T07:32:54.768Z,47.53
2023-07-08T07:33:54.736Z,48.66
2023-07-08T07:34:54.709Z,48.82
2023-07-08T07:35:54.695Z,47.05
2023-07-08T07:36:56.644Z,46.25
2023-07-08T07:37:54.697Z,50.11
2023-07-08T07:38:54.661Z,48.18
2023-07-08T07:39:54.657Z,47.70
2023-07-08T07:40:54.671Z,47.70
2023-07-08T07:41:54.649Z,48.98
2023-07-08T07:42:54.616Z,50.43
2023-07-08T07:43:54.638Z,49.95
2023-07-08T07:44:54.595Z,49.63
2023-07-08T07:45:54.596Z,49.15
2023-07-08T07:46:54.729Z,49.15
2023-07-08T07:47:54.599Z,48.98
2023-07-08T07:48:54.566Z,48.82
2023-07-08T07:49:54.563Z,49.15
2023-07-08T07:50:54.558Z,53.17
2023-07-08T07:51:54.539Z,49.95
2023-07-08T07:52:54.551Z,49.63
2023-07-08T07:53:54.545Z,48.98
2023-07-08T07:54:54.498Z,47.86
2023-07-08T07:55:54.541Z,49.79
2023-07-08T07:56:54.496Z,48.66
2023-07-08T07:57:54.471Z,47.70
2023-07-08T07:58:54.487Z,48.02
2023-07-08T07:59:54.486Z,48.66
2023-07-08T08:00:54.438Z,48.18
2023-07-08T08:01:54.499Z,46.57
2023-07-08T08:02:54.466Z,49.15
2023-07-08T08:03:54.462Z,52.53
2023-07-08T08:04:54.406Z,48.18
2023-07-08T08:05:54.385Z,46.57
2023-07-08T08:06:54.423Z,45.92
2023-07-08T08:07:54.392Z,46.08
2023-07-08T08:08:54.346Z,45.92
2023-07-08T08:09:54.354Z,51.24
2023-07-08T08:10:54.378Z,47.37
2023-07-08T08:11:54.366Z,49.47
2023-07-08T08:12:54.600Z,47.53
2023-07-08T08:13:54.359Z,46.89
2023-07-08T08:14:54.331Z,47.37
2023-07-08T08:15:54.275Z,49.63
2023-07-08T08:16:54.378Z,48.66
2023-07-08T08:17:54.332Z,48.34
2023-07-08T08:18:54.256Z,46.41
2023-07-08T08:19:54.264Z,49.95
2023-07-08T08:20:54.285Z,48.34
2023-07-08T08:21:54.245Z,46.25
2023-07-08T08:22:54.207Z,47.86
2023-07-08T08:23:54.277Z,49.15
2023-07-08T08:24:54.205Z,48.18
2023-07-08T08:25:54.191Z,48.34
2023-07-08T08:26:54.208Z,47.05
2023-07-08T08:27:54.177Z,43.83
2023-07-08T08:28:54.171Z,45.44
2023-07-08T08:29:54.174Z,46.89
2023-07-08T08:30:54.191Z,45.44
2023-07-08T08:31:55.118Z,46.25
2023-07-08T08:32:54.167Z,47.53
2023-07-08T08:33:54.154Z,46.73
2023-07-08T08:34:54.101Z,48.02
2023-07-08T08:35:54.105Z,46.89
2023-07-08T08:36:54.100Z,48.98
2023-07-08T08:37:54.073Z,45.28
2023-07-08T08:38:54.062Z,47.86
2023-07-08T08:39:54.060Z,46.57
2023-07-08T08:40:54.096Z,46.73
2023-07-08T08:41:54.077Z,48.98
2023-07-08T08:42:54.025Z,47.05
2023-07-08T08:43:55.622Z,47.37
2023-07-08T08:44:54.025Z,50.60
2023-07-08T08:45:54.013Z,46.08
2023-07-08T08:46:54.103Z,48.02
2023-07-08T08:47:54.053Z,44.79
2023-07-08T08:48:53.947Z,45.28
2023-07-08T08:49:53.950Z,45.60
2023-07-08T08:50:53.968Z,44.15
2023-07-08T08:51:53.957Z,43.67
2023-07-08T08:52:53.946Z,46.41
2023-07-08T08:53:53.925Z,43.34
2023-07-08T08:54:53.939Z,45.12
2023-07-08T08:55:53.885Z,47.37
2023-07-08T08:56:53.960Z,51.72
2023-07-08T08:57:53.873Z,48.02
2023-07-08T08:58:53.851Z,46.08
2023-07-08T08:59:53.902Z,45.92
2023-07-08T09:00:53.882Z,44.96
2023-07-08T09:01:53.872Z,43.02
2023-07-08T09:02:53.838Z,42.70
2023-07-08T09:03:53.866Z,43.51
2023-07-08T09:04:53.797Z,45.92
2023-07-08T09:05:53.796Z,44.63
2023-07-08T09:06:54.194Z,48.02
2023-07-08T09:07:54.782Z,48.66
2023-07-08T09:08:53.752Z,45.12
2023-07-08T09:09:53.786Z,45.76
2023-07-08T09:10:53.756Z,45.92
2023-07-08T09:11:53.767Z,41.89
2023-07-08T09:12:53.702Z,44.31
2023-07-08T09:13:53.764Z,47.37
2023-07-08T09:14:53.718Z,45.60
2023-07-08T09:15:53.692Z,47.21
2023-07-08T09:16:53.706Z,46.57
2023-07-08T09:17:53.705Z,48.34
2023-07-08T09:18:53.681Z,44.47
2023-07-08T09:19:53.633Z,45.12
2023-07-08T09:20:53.671Z,46.57
2023-07-08T09:21:53.657Z,47.37
2023-07-08T09:22:53.712Z,48.02
2023-07-08T09:23:53.638Z,50.11
2023-07-08T09:24:53.628Z,46.25
2023-07-08T09:25:53.619Z,45.76
2023-07-08T09:26:53.588Z,47.86
2023-07-08T09:27:53.602Z,47.05
2023-07-08T09:28:53.544Z,45.60
2023-07-08T09:29:53.566Z,47.37
2023-07-08T09:30:53.580Z,47.21
2023-07-08T09:31:53.577Z,46.89
2023-07-08T09:32:53.529Z,46.89
2023-07-08T09:33:53.505Z,47.05
2023-07-08T09:34:53.560Z,47.86
2023-07-08T09:35:53.541Z,45.76
2023-07-08T09:36:53.504Z,47.86
2023-07-08T09:37:53.509Z,49.15
2023-07-08T09:38:53.464Z,46.41
2023-07-08T09:39:53.441Z,47.05
2023-07-08T09:40:53.442Z,48.34
2023-07-08T09:41:53.450Z,48.82
2023-07-08T09:42:53.412Z,47.05
2023-07-08T09:43:53.405Z,48.34
2023-07-08T09:44:53.410Z,47.53
2023-07-08T09:45:53.411Z,47.53
2023-07-08T09:46:53.429Z,45.76
2023-07-08T09:47:53.407Z,46.73
2023-07-08T09:48:53.380Z,45.44
2023-07-08T09:49:53.343Z,47.37
2023-07-08T09:50:53.307Z,41.25
2023-07-08T09:51:53.325Z,43.99
2023-07-08T09:52:53.312Z,45.92
2023-07-08T09:53:53.294Z,44.47
2023-07-08T09:54:53.296Z,44.31
2023-07-08T09:55:53.277Z,43.02
2023-07-08T09:56:53.246Z,39.96
2023-07-08T09:57:53.275Z,43.83
2023-07-08T09:58:53.278Z,45.76
2023-07-08T09:59:53.202Z,44.79
2023-07-08T10:00:53.244Z,44.31
2023-07-08T10:01:53.240Z,49.79
2023-07-08T10:02:53.267Z,45.28
2023-07-08T10:03:53.213Z,46.25
2023-07-08T10:04:53.206Z,41.41
2023-07-08T10:05:53.178Z,48.66
2023-07-08T10:06:53.164Z,45.60
2023-07-08T10:07:53.165Z,44.47
2023-07-08T10:08:53.109Z,49.79
2023-07-08T10:09:54.127Z,45.92
2023-07-08T10:10:53.141Z,44.31
2023-07-08T10:11:53.235Z,45.12
2023-07-08T10:12:53.115Z,44.15
2023-07-08T10:14:11.634Z,44.96
2023-07-08T10:14:55.094Z,47.70
2023-07-08T10:15:53.157Z,46.41
2023-07-08T10:16:53.185Z,44.31
2023-07-08T10:17:53.184Z,46.25
2023-07-08T10:18:53.053Z,46.57
2023-07-08T10:19:53.041Z,45.60
2023-07-08T10:20:53.037Z,47.70
2023-07-08T10:21:53.085Z,44.96
2023-07-08T10:22:53.017Z,43.67
2023-07-08T10:23:52.987Z,43.83
2023-07-08T10:24:53.042Z,42.70
2023-07-08T10:25:53.065Z,45.60
2023-07-08T10:26:53.025Z,43.83
2023-07-08T10:27:53.034Z,40.28
2023-07-08T10:28:53.003Z,42.70
2023-07-08T10:29:53.001Z,44.31
2023-07-08T10:30:52.888Z,42.86
2023-07-08T10:31:53.017Z,42.38
2023-07-08T10:32:52.987Z,44.96
2023-07-08T10:33:52.925Z,43.34
2023-07-08T10:34:52.868Z,42.38
2023-07-08T10:35:52.853Z,40.93
2023-07-08T10:36:52.838Z,43.51
2023-07-08T10:37:52.827Z,43.18
2023-07-08T10:38:52.826Z,43.67
2023-07-08T10:39:52.805Z,43.18
2023-07-08T10:40:52.800Z,46.57
2023-07-08T10:41:52.791Z,42.54
2023-07-08T10:42:52.808Z,47.53
2023-07-08T10:43:52.744Z,45.92
2023-07-08T10:44:52.775Z,43.99
2023-07-08T10:45:52.769Z,46.89
2023-07-08T10:46:52.729Z,47.05
2023-07-08T10:47:52.765Z,44.96
2023-07-08T10:48:52.736Z,49.15
2023-07-08T10:49:52.728Z,44.96
2023-07-08T10:50:52.661Z,46.41
2023-07-08T10:51:52.694Z,42.06
2023-07-08T10:52:52.677Z,40.12
2023-07-08T10:53:53.923Z,45.12
2023-07-08T10:54:52.648Z,45.28
2023-07-08T10:55:52.648Z,46.41
2023-07-08T10:56:52.644Z,46.57
2023-07-08T10:57:52.622Z,47.86
2023-07-08T10:58:52.613Z,46.73
2023-07-08T10:59:52.612Z,47.21
2023-07-08T11:00:52.574Z,43.18
2023-07-08T11:01:52.652Z,45.44
2023-07-08T11:02:52.614Z,45.76
2023-07-08T11:03:52.627Z,46.25
2023-07-08T11:04:52.571Z,44.15
2023-07-08T11:05:52.541Z,44.96
2023-07-08T11:06:52.508Z,43.99
2023-07-08T11:07:52.539Z,44.15
2023-07-08T11:08:52.562Z,43.02
2023-07-08T11:09:52.501Z,40.93
2023-07-08T11:10:57.304Z,40.28
2023-07-08T11:11:54.513Z,43.51
2023-07-08T11:12:52.450Z,43.18
2023-07-08T11:13:52.505Z,38.19
2023-07-08T11:14:52.489Z,37.38
2023-07-08T11:15:52.468Z,37.87
2023-07-08T11:16:52.440Z,42.70
2023-07-08T11:17:52.522Z,40.44
2023-07-08T11:18:52.443Z,40.77
2023-07-08T11:19:52.371Z,40.44
2023-07-08T11:20:52.434Z,41.57
2023-07-08T11:21:52.385Z,41.41
2023-07-08T11:22:52.380Z,42.70
2023-07-08T11:23:52.376Z,40.28
2023-07-08T11:24:52.369Z,42.86
2023-07-08T11:25:52.364Z,41.41
2023-07-08T11:26:52.346Z,40.12
2023-07-08T11:27:52.348Z,38.99
2023-07-08T11:28:52.285Z,41.41
2023-07-08T11:29:52.317Z,45.12
2023-07-08T11:30:52.323Z,41.73
2023-07-08T11:31:52.371Z,41.25
2023-07-08T11:32:52.244Z,40.12
2023-07-08T11:33:52.272Z,42.54
2023-07-08T11:34:52.313Z,41.57
2023-07-08T11:35:52.235Z,43.99
2023-07-08T11:36:52.280Z,42.86
2023-07-08T11:37:52.262Z,43.83
2023-07-08T11:38:52.203Z,40.12
2023-07-08T11:39:52.221Z,42.86
2023-07-08T11:40:52.203Z,42.54
2023-07-08T11:41:52.195Z,42.70
2023-07-08T11:42:59.907Z,41.41
2023-07-08T11:43:54.192Z,41.73
2023-07-08T11:44:52.182Z,42.38
2023-07-08T11:45:52.156Z,43.99
2023-07-08T11:46:52.159Z,42.70
2023-07-08T11:47:52.230Z,39.16
2023-07-08T11:48:52.106Z,40.77
2023-07-08T11:49:52.153Z,42.54
2023-07-08T11:50:52.107Z,39.16
2023-07-08T11:51:52.113Z,42.54
2023-07-08T11:52:52.101Z,40.44
2023-07-08T11:53:52.077Z,41.57
2023-07-08T11:54:52.075Z,42.38
2023-07-08T11:55:53.053Z,39.16
2023-07-08T11:56:53.046Z,38.19
2023-07-08T11:57:52.044Z,41.89
2023-07-08T11:58:52.041Z,38.67
2023-07-08T11:59:51.995Z,38.35
2023-07-08T12:00:53.607Z,41.89
2023-07-08T12:01:52.010Z,39.48
2023-07-08T12:02:52.070Z,41.25
2023-07-08T12:03:53.036Z,47.86
2023-07-08T12:04:51.995Z,44.96
2023-07-08T12:05:51.971Z,43.83
2023-07-08T12:06:52.011Z,44.96
2023-07-08T12:07:51.993Z,42.06
2023-07-08T12:08:55.085Z,44.96
2023-07-08T12:09:53.916Z,45.44
2023-07-08T12:10:51.969Z,43.99
2023-07-08T12:11:51.932Z,46.41
2023-07-08T12:12:51.896Z,45.92
2023-07-08T12:13:51.961Z,44.47
2023-07-08T12:14:51.901Z,43.02
2023-07-08T12:15:51.844Z,41.25
2023-07-08T12:16:51.914Z,43.34
2023-07-08T12:17:51.878Z,42.70
2023-07-08T12:18:51.828Z,42.38
2023-07-08T12:19:51.828Z,40.93
2023-07-08T12:20:51.847Z,48.18
2023-07-08T12:21:51.823Z,39.48
2023-07-08T12:22:51.808Z,41.25
2023-07-08T12:23:51.789Z,40.44
2023-07-08T12:24:51.819Z,42.38
2023-07-08T12:25:51.775Z,44.96
2023-07-08T12:26:51.753Z,38.67
2023-07-08T12:27:51.745Z,41.25
2023-07-08T12:28:51.751Z,44.31
2023-07-08T12:29:51.762Z,39.16
2023-07-08T12:30:51.729Z,40.93
2023-07-08T12:31:51.725Z,44.47
2023-07-08T12:32:51.729Z,42.54
2023-07-08T12:33:51.734Z,42.70
2023-07-08T12:34:51.706Z,40.12
2023-07-08T12:35:51.671Z,43.83
2023-07-08T12:36:51.644Z,43.83
2023-07-08T12:37:51.668Z,40.44
2023-07-08T12:38:51.660Z,43.18
2023-07-08T12:39:51.637Z,44.63
2023-07-08T12:40:51.662Z,46.08
2023-07-08T12:41:51.609Z,43.34
2023-07-08T12:42:51.600Z,38.35
2023-07-08T12:43:51.617Z,38.35
2023-07-08T12:44:51.602Z,43.67
2023-07-08T12:45:51.584Z,44.47
2023-07-08T12:46:51.580Z,44.31
2023-07-08T12:47:52.465Z,40.77
2023-07-08T12:48:51.532Z,40.61
2023-07-08T12:49:51.545Z,42.06
2023-07-08T12:50:51.545Z,45.28
2023-07-08T12:51:51.541Z,41.25
2023-07-08T12:52:51.521Z,39.32
2023-07-08T12:53:51.498Z,42.38
2023-07-08T12:54:51.512Z,43.02